.
WxDataArchive / Data Records for 2015-12-27
2015-12-26 December 2015 2015-12-28

Data Records for Sunday, 27 December 2015

Time	Temp	Chill	HIndex	Humid	Dewpt	 Wind 	HiWind	WindDir	Rain 	Barom
-----	----	-----	------	-----	-----	------	------	-------	-----	-----
00:00	47.9	47.9	47.9	97	47.1	0	0	---	0.01	29.962 
00:05	48.0	48.0	48.0	97	47.2	0	0	---	0.01	29.962 
00:10	47.9	47.9	47.9	97	47.1	0	1	22	0.01	29.962 
00:15	47.9	47.9	47.9	97	47.1	0	3	315	0.02	29.922 
00:20	47.7	47.7	47.7	97	46.9	0	2	315	0.00	29.922 
00:25	47.7	47.7	47.7	97	46.9	0	0	---	0.00	29.922 
00:30	47.6	47.6	47.6	97	46.8	0	0	---	0.00	29.928 
00:35	47.6	47.6	47.6	97	46.8	0	0	---	0.00	29.928 
00:40	47.4	47.4	47.4	97	46.6	0	1	315	0.00	29.928 
00:45	47.3	47.3	47.3	97	46.5	0	1	315	0.00	29.914 
00:50	47.1	47.1	47.1	97	46.3	0	1	315	0.00	29.914 
00:55	47.0	47.0	47.0	97	46.2	0	1	315	0.00	29.914 
01:00	47.0	47.0	47.0	97	46.2	0	1	315	0.01	29.917 
01:05	46.8	46.8	46.8	97	46.0	0	0	---	0.01	29.917 
01:10	46.8	46.8	46.8	97	46.0	0	0	---	0.01	29.917 
01:15	46.8	46.8	46.8	97	46.0	0	1	315	0.00	29.911 
01:20	46.8	46.8	46.8	97	46.0	0	0	---	0.01	29.911 
01:25	46.8	46.8	46.8	97	46.0	0	1	315	0.00	29.911 
01:30	46.8	46.8	46.8	97	46.0	0	1	315	0.00	29.919 
01:35	46.8	46.8	46.8	97	46.0	0	1	315	0.01	29.919 
01:40	46.8	46.8	46.8	97	46.0	0	1	315	0.01	29.919 
01:45	46.8	46.8	46.8	97	46.0	0	1	315	0.02	29.915 
01:50	46.8	46.8	46.8	97	46.0	0	1	315	0.01	29.915 
01:55	47.0	47.0	47.0	97	46.2	0	1	315	0.01	29.915 
02:00	47.0	47.0	47.0	97	46.2	0	1	315	0.00	29.909 
02:05	47.0	47.0	47.0	97	46.2	0	1	315	0.02	29.909 
02:10	47.0	47.0	47.0	97	46.2	0	1	315	0.01	29.909 
02:15	47.0	47.0	47.0	97	46.2	0	0	---	0.00	29.903 
02:20	47.1	47.1	47.1	97	46.3	0	1	315	0.00	29.903 
02:25	47.3	47.3	47.3	97	46.5	0	2	315	0.00	29.903 
02:30	47.6	47.6	47.6	97	46.8	0	2	315	0.00	29.919 
02:35	47.6	47.6	47.6	97	46.8	0	3	315	0.00	29.919 
02:40	47.6	47.6	47.6	97	46.8	0	2	315	0.00	29.919 
02:45	47.7	47.7	47.7	97	46.9	1	3	315	0.00	29.919 
02:50	48.0	48.0	48.0	97	47.2	1	2	315	0.00	29.919 
02:55	48.3	48.3	48.3	97	47.5	0	2	315	0.01	29.919 
03:00	48.3	48.3	48.3	97	47.5	0	2	315	0.00	29.903 
03:05	48.5	48.5	48.5	97	47.7	0	3	315	0.00	29.903 
03:10	48.5	48.5	48.5	97	47.7	0	2	315	0.00	29.903 
03:15	48.5	48.5	48.5	97	47.7	0	1	315	0.00	29.890 
03:20	48.5	48.5	48.5	97	47.7	0	3	315	0.00	29.890 
03:25	48.5	48.5	48.5	97	47.7	0	1	315	0.00	29.890 
03:30	48.5	48.5	48.5	97	47.7	0	0	---	0.00	29.900 
03:35	48.5	48.5	48.5	97	47.7	0	0	---	0.01	29.900 
03:40	48.6	48.6	48.6	97	47.8	0	1	315	0.01	29.900 
03:45	48.6	48.6	48.6	97	47.8	0	0	---	0.00	29.904 
03:50	48.6	48.6	48.6	97	47.8	0	1	315	0.00	29.904 
03:55	48.6	48.6	48.6	97	47.8	0	1	315	0.00	29.904 
04:00	48.5	48.5	48.5	97	47.7	0	2	292	0.00	29.905 
04:05	48.5	48.5	48.5	97	47.7	0	1	292	0.00	29.905 
04:10	48.5	48.5	48.5	97	47.7	0	1	292	0.01	29.905 
04:15	48.3	48.3	48.3	97	47.5	0	1	292	0.00	29.889 
04:20	48.3	48.3	48.3	97	47.5	0	0	---	0.00	29.889 
04:25	48.3	48.3	48.3	97	47.5	0	0	---	0.00	29.889 
04:30	48.2	48.2	48.2	97	47.4	0	2	292	0.01	29.917 
04:35	48.2	48.2	48.2	97	47.4	0	2	292	0.00	29.917 
04:40	48.0	48.0	48.0	97	47.2	0	3	292	0.00	29.917 
04:45	48.0	48.0	48.0	97	47.2	1	4	292	0.00	29.926 
04:50	47.7	47.7	47.7	97	46.9	0	2	292	0.00	29.926 
04:55	47.4	47.4	47.4	97	46.6	2	4	292	0.01	29.926 
05:00	47.1	47.1	47.1	97	46.3	1	5	292	0.00	29.919 
05:05	47.0	47.0	47.0	97	46.2	1	5	270	0.00	29.919 
05:10	47.0	47.0	47.0	97	46.2	1	4	292	0.00	29.919 
05:15	46.7	46.7	46.7	97	45.9	1	4	270	0.00	29.941 
05:20	46.4	46.4	46.4	97	45.6	2	5	248	0.01	29.941 
05:25	46.1	46.1	46.1	97	45.3	2	6	315	0.00	29.941 
05:30	45.8	45.8	45.8	97	45.0	1	4	315	0.00	29.937 
05:35	45.5	45.5	45.5	97	44.7	2	5	292	0.01	29.937 
05:40	45.2	45.2	45.2	97	44.4	2	5	292	0.00	29.937 
05:45	45.1	45.1	45.1	97	44.3	1	4	315	0.01	29.963 
05:50	44.9	44.9	44.9	97	44.1	0	3	315	0.00	29.963 
05:55	44.8	44.8	44.8	97	44.0	1	4	315	0.01	29.963 
06:00	44.6	44.6	44.6	97	43.8	1	5	292	0.00	29.963 
06:05	44.3	44.3	44.3	97	43.5	1	4	292	0.01	29.963 
06:10	44.2	44.2	44.2	97	43.4	1	4	270	0.00	29.963 
06:15	44.1	44.1	44.1	97	43.3	1	4	338	0.00	29.976 
06:20	43.9	43.9	43.9	97	43.1	1	3	338	0.01	29.976 
06:25	43.6	43.6	43.6	97	42.8	2	7	292	0.01	29.976 
06:30	43.3	43.3	43.3	97	42.5	2	7	338	0.00	29.974 
06:35	43.2	43.2	43.2	97	42.4	2	5	315	0.01	29.974 
06:40	43.1	43.1	43.1	97	42.3	1	6	338	0.00	29.974 
06:45	42.9	42.9	42.9	97	42.1	1	6	292	0.00	29.953 
06:50	42.8	42.8	42.8	96	41.7	2	6	338	0.00	29.953 
06:55	42.6	42.6	42.6	97	41.8	1	5	338	0.00	29.953 
07:00	42.3	42.3	42.3	96	41.2	1	5	0	0.01	29.961 
07:05	42.2	42.2	42.2	96	41.1	1	5	0	0.00	29.961 
07:10	42.2	42.2	42.2	96	41.1	1	3	292	0.00	29.961 
07:15	42.1	42.1	42.1	96	41.0	1	4	292	0.00	29.972 
07:20	41.6	41.6	41.6	96	40.5	2	7	22	0.00	29.972 
07:25	41.3	41.3	41.3	96	40.2	2	5	338	0.00	29.972 
07:30	40.9	40.9	40.9	96	39.8	1	6	0	0.00	29.991 
07:35	40.6	40.6	40.6	96	39.5	1	5	338	0.00	29.991 
07:40	40.6	40.6	40.6	96	39.5	1	5	292	0.00	29.991 
07:45	40.5	40.5	40.5	96	39.5	1	6	0	0.00	30.005 
07:50	40.3	40.3	40.3	96	39.3	1	6	338	0.00	30.005 
07:55	40.2	40.2	40.2	96	39.2	2	6	338	0.00	30.005 
08:00	40.1	40.1	40.1	96	39.1	1	4	45	0.00	30.018 
08:05	39.9	39.9	39.9	96	38.9	1	3	0	0.00	30.018 
08:10	39.9	39.9	39.9	96	38.9	0	3	0	0.00	30.018 
08:15	39.9	39.9	39.9	96	38.9	0	2	338	0.00	30.025 
08:20	39.8	39.8	39.8	96	38.8	0	3	68	0.00	30.025 
08:25	39.6	39.6	39.6	96	38.6	0	4	45	0.00	30.025 
08:30	39.5	39.5	39.5	96	38.5	0	4	315	0.00	30.031 
08:35	39.3	39.3	39.3	96	38.3	0	3	45	0.00	30.031 
08:40	39.3	39.3	39.3	96	38.3	0	3	45	0.00	30.031 
08:45	39.2	39.2	39.2	96	38.2	1	3	338	0.00	30.028 
08:50	39.2	39.2	39.2	96	38.2	0	2	338	0.00	30.028 
08:55	39.2	39.2	39.2	96	38.2	1	4	0	0.00	30.028 
09:00	39.2	39.2	39.2	95	37.9	0	3	0	0.00	30.033 
09:05	39.1	39.1	39.1	95	37.8	1	4	338	0.00	30.033 
09:10	39.1	39.1	39.1	95	37.8	0	2	338	0.00	30.033 
09:15	39.1	39.1	39.1	95	37.8	0	3	338	0.00	30.038 
09:20	39.1	39.1	39.1	95	37.8	0	4	315	0.00	30.038 
09:25	39.1	39.1	39.1	95	37.8	0	3	315	0.00	30.038 
09:30	39.1	39.1	39.1	95	37.8	1	7	338	0.00	30.047 
09:35	39.1	39.1	39.1	95	37.8	1	3	315	0.00	30.047 
09:40	39.1	39.1	39.1	95	37.8	1	7	338	0.00	30.047 
09:45	39.1	39.1	39.1	95	37.8	1	3	270	0.00	30.060 
09:50	39.1	39.1	39.1	94	37.5	1	4	315	0.00	30.060 
09:55	39.1	39.1	39.1	94	37.5	0	2	315	0.00	30.060 
10:00	39.2	39.2	39.2	94	37.6	0	2	315	0.00	30.071 
10:05	39.2	39.2	39.2	94	37.6	0	2	315	0.00	30.071 
10:10	39.2	39.2	39.2	94	37.6	0	3	315	0.00	30.071 
10:15	39.2	39.2	39.2	94	37.6	0	3	315	0.00	30.079 
10:20	39.2	39.2	39.2	93	37.3	0	3	315	0.00	30.079 
10:25	39.2	39.2	39.2	93	37.3	0	3	248	0.00	30.079 
10:30	39.3	39.3	39.3	93	37.4	0	3	270	0.00	30.100 
10:35	39.5	39.5	39.5	93	37.6	0	2	270	0.00	30.100 
10:40	39.3	39.3	39.3	92	37.2	1	4	270	0.00	30.100 
10:45	39.5	39.5	39.5	92	37.4	1	3	292	0.00	30.112 
10:50	39.5	39.5	39.5	92	37.4	0	5	112	0.00	30.112 
10:55	39.5	39.5	39.5	92	37.4	0	3	112	0.00	30.112 
11:00	39.5	39.5	39.5	92	37.4	0	2	0	0.00	30.108 
11:05	39.5	39.5	39.5	91	37.1	1	5	135	0.00	30.108 
11:10	39.6	39.6	39.6	91	37.2	0	4	45	0.00	30.108 
11:15	39.6	39.6	39.6	91	37.2	0	2	45	0.00	30.101 
11:20	39.8	39.8	39.8	90	37.1	0	2	45	0.00	30.101 
11:25	39.8	39.8	39.8	90	37.1	0	1	45	0.00	30.101 
11:30	39.8	39.8	39.8	90	37.1	0	3	68	0.00	30.109 
11:35	39.8	39.8	39.8	90	37.1	0	4	68	0.00	30.109 
11:40	39.8	39.8	39.8	89	36.8	0	3	90	0.00	30.109 
11:45	39.6	39.6	39.6	89	36.6	0	4	90	0.00	30.107 
11:50	39.8	39.8	39.8	89	36.8	1	3	22	0.00	30.107 
11:55	39.8	39.8	39.8	88	36.5	0	2	112	0.00	30.107 
12:00	39.8	39.8	39.8	88	36.5	0	5	112	0.00	30.120 
12:05	39.8	39.8	39.8	88	36.5	0	2	45	0.00	30.120 
12:10	39.8	39.8	39.8	88	36.5	1	4	338	0.00	30.120 
12:15	39.6	39.6	39.6	87	36.1	1	3	22	0.00	30.130 
12:20	39.5	39.5	39.5	87	36.0	1	4	315	0.00	30.130 
12:25	39.5	39.5	39.5	87	36.0	1	4	315	0.00	30.130 
12:30	39.5	39.5	39.5	87	36.0	2	6	315	0.00	30.129 
12:35	39.5	39.5	39.5	86	35.7	1	5	338	0.00	30.129 
12:40	39.5	39.5	39.5	86	35.7	1	3	315	0.00	30.129 
12:45	39.5	39.5	39.5	86	35.7	1	3	338	0.00	30.130 
12:50	39.3	39.3	39.3	85	35.2	1	6	22	0.00	30.130 
12:55	39.2	39.2	39.2	85	35.1	1	4	338	0.00	30.130 
13:00	39.1	39.1	39.1	85	35.0	2	9	292	0.00	30.135 
13:05	38.9	38.9	38.9	84	34.5	1	5	0	0.00	30.135 
13:10	38.8	38.8	38.8	84	34.4	2	10	338	0.00	30.135 
13:15	38.6	38.6	38.6	84	34.2	2	6	338	0.00	30.135 
13:20	38.5	38.5	38.5	84	34.1	2	11	135	0.00	30.135 
13:25	38.5	38.5	38.5	84	34.1	1	7	68	0.00	30.135 
13:30	38.3	38.3	38.3	84	33.9	1	6	45	0.00	30.140 
13:35	38.3	38.3	38.3	84	33.9	2	9	0	0.00	30.140 
13:40	38.2	38.2	38.2	83	33.5	3	10	0	0.00	30.140 
13:45	38.2	38.2	38.2	83	33.5	2	5	90	0.00	30.146 
13:50	38.2	38.2	38.2	83	33.5	2	6	45	0.00	30.146 
13:55	38.2	38.2	38.2	82	33.2	2	6	22	0.00	30.146 
14:00	38.3	38.3	38.3	82	33.3	1	5	68	0.00	30.157 
14:05	38.3	38.3	38.3	82	33.3	0	4	338	0.00	30.157 
14:10	38.3	38.3	38.3	82	33.3	1	5	68	0.00	30.157 
14:15	38.3	38.3	38.3	81	33.0	2	4	45	0.00	30.151 
14:20	38.3	38.3	38.3	81	33.0	2	7	112	0.00	30.151 
14:25	38.3	38.3	38.3	80	32.7	1	5	338	0.00	30.151 
14:30	38.5	38.5	38.5	81	33.2	1	6	90	0.00	30.160 
14:35	38.5	38.5	38.5	80	32.9	2	7	22	0.00	30.160 
14:40	38.5	38.5	38.5	80	32.9	1	6	338	0.00	30.160 
14:45	38.5	38.5	38.5	81	33.2	1	6	68	0.00	30.160 
14:50	38.3	38.3	38.3	81	33.0	2	5	338	0.00	30.160 
14:55	38.2	38.2	38.2	81	32.9	2	5	338	0.00	30.160 
15:00	38.2	38.2	38.2	81	32.9	1	6	338	0.00	30.162 
15:05	38.2	38.2	38.2	81	32.9	2	7	112	0.00	30.162 
15:10	38.2	38.2	38.2	81	32.9	1	6	112	0.00	30.162 
15:15	38.2	38.2	38.2	82	33.2	1	6	338	0.00	30.164 
15:20	38.0	38.0	38.0	81	32.7	2	11	22	0.00	30.164 
15:25	38.0	38.0	38.0	81	32.7	1	4	90	0.00	30.164 
15:30	38.0	38.0	38.0	81	32.7	1	4	45	0.00	30.179 
15:35	38.2	38.2	38.2	81	32.9	0	4	68	0.00	30.179 
15:40	38.2	38.2	38.2	81	32.9	1	5	90	0.00	30.179 
15:45	38.2	38.2	38.2	81	32.9	1	4	68	0.00	30.187 
15:50	38.2	38.2	38.2	81	32.9	1	3	338	0.00	30.187 
15:55	38.2	38.2	38.2	81	32.9	2	5	0	0.00	30.187 
16:00	38.2	38.2	38.2	80	32.6	2	5	68	0.00	30.191 
16:05	38.2	38.2	38.2	80	32.6	1	6	68	0.00	30.191 
16:10	38.2	38.2	38.2	80	32.6	2	5	68	0.00	30.191 
16:15	38.2	38.2	38.2	80	32.6	1	6	45	0.00	30.208 
16:20	38.2	38.2	38.2	80	32.6	1	6	338	0.00	30.208 
16:25	38.2	38.2	38.2	79	32.3	2	9	90	0.00	30.208 
16:30	38.2	38.2	38.2	79	32.3	2	5	45	0.00	30.215 
16:35	38.2	38.2	38.2	78	32.0	1	5	90	0.00	30.215 
16:40	38.3	38.3	38.3	78	32.1	1	4	22	0.00	30.215 
16:45	38.3	38.3	38.3	79	32.4	0	4	315	0.00	30.225 
16:50	38.2	38.2	38.2	78	32.0	1	7	112	0.00	30.225 
16:55	38.2	38.2	38.2	78	32.0	1	4	0	0.00	30.225 
17:00	38.2	38.2	38.2	78	32.0	1	5	90	0.00	30.234 
17:05	38.2	38.2	38.2	78	32.0	1	4	90	0.00	30.234 
17:10	38.0	38.0	38.0	78	31.8	1	7	0	0.00	30.234 
17:15	38.0	38.0	38.0	77	31.4	2	7	45	0.00	30.243 
17:20	38.0	38.0	38.0	77	31.4	1	4	90	0.00	30.243 
17:25	37.9	37.9	37.9	77	31.3	1	5	112	0.00	30.243 
17:30	37.9	37.9	37.9	77	31.3	1	3	90	0.00	30.254 
17:35	37.8	37.8	37.8	77	31.2	0	3	68	0.00	30.254 
17:40	37.8	37.8	37.8	78	31.6	0	2	68	0.00	30.254 
17:45	37.8	37.8	37.8	79	31.9	0	1	68	0.00	30.263 
17:50	37.6	37.6	37.6	79	31.7	0	4	90	0.00	30.263 
17:55	37.6	37.6	37.6	79	31.7	0	2	90	0.00	30.263 
18:00	37.6	37.6	37.6	79	31.7	0	2	90	0.00	30.278 
18:05	37.5	37.5	37.5	80	31.9	0	1	90	0.00	30.278 
18:10	37.5	37.5	37.5	80	31.9	0	3	22	0.00	30.278 
18:15	37.3	37.3	37.3	80	31.7	0	2	22	0.00	30.281 
18:20	37.3	37.3	37.3	79	31.4	0	3	22	0.00	30.281 
18:25	37.2	37.2	37.2	80	31.6	0	2	22	0.00	30.281 
18:30	37.2	37.2	37.2	80	31.6	0	2	22	0.00	30.279 
18:35	37.0	37.0	37.0	80	31.4	0	1	22	0.00	30.279 
18:40	36.9	36.9	36.9	80	31.3	0	2	22	0.00	30.279 
18:45	36.9	36.9	36.9	80	31.3	0	2	22	0.00	30.280 
18:50	36.8	36.8	36.8	80	31.2	0	3	22	0.00	30.280 
18:55	36.6	36.6	36.6	81	31.3	0	2	22	0.00	30.280 
19:00	36.6	36.6	36.6	81	31.3	0	1	22	0.00	30.286 
19:05	36.5	36.5	36.5	81	31.2	0	0	---	0.00	30.286 
19:10	36.5	36.5	36.5	81	31.2	0	0	---	0.00	30.286 
19:15	36.3	36.3	36.3	81	31.0	0	2	22	0.00	30.293 
19:20	36.2	36.2	36.2	81	30.9	0	1	22	0.00	30.293 
19:25	36.2	36.2	36.2	82	31.2	0	1	22	0.00	30.293 
19:30	36.0	36.0	36.0	82	31.0	0	1	22	0.00	30.289 
19:35	36.0	36.0	36.0	82	31.0	0	1	22	0.00	30.289 
19:40	36.0	36.0	36.0	82	31.0	0	1	22	0.00	30.289 
19:45	35.9	35.9	35.9	82	31.0	0	1	22	0.00	30.276 
19:50	35.9	35.9	35.9	82	31.0	0	2	22	0.00	30.276 
19:55	35.9	35.9	35.9	83	31.2	0	2	22	0.00	30.276 
20:00	35.9	35.9	35.9	83	31.2	0	1	22	0.00	30.283 
20:05	35.9	35.9	35.9	83	31.2	0	2	22	0.00	30.283 
20:10	35.9	35.9	35.9	82	31.0	0	3	22	0.00	30.283 
20:15	35.9	35.9	35.9	82	31.0	0	2	22	0.00	30.296 
20:20	35.9	35.9	35.9	82	31.0	0	2	22	0.00	30.296 
20:25	35.8	35.8	35.8	82	30.9	1	4	22	0.00	30.296 
20:30	35.8	35.8	35.8	81	30.6	2	6	0	0.00	30.294 
20:35	35.8	35.8	35.8	81	30.6	1	5	90	0.00	30.294 
20:40	35.9	35.9	35.9	80	30.3	1	4	22	0.00	30.294 
20:45	35.9	35.9	35.9	79	30.0	1	5	22	0.00	30.310 
20:50	35.9	35.9	35.9	79	30.0	1	5	22	0.00	30.310 
20:55	35.8	35.8	35.8	78	29.6	1	5	45	0.00	30.310 
21:00	35.8	35.8	35.8	78	29.6	1	3	90	0.00	30.312 
21:05	35.8	35.8	35.8	77	29.3	1	7	90	0.00	30.312 
21:10	35.6	35.6	35.6	77	29.1	1	4	90	0.00	30.312 
21:15	35.6	35.6	35.6	77	29.1	1	4	68	0.00	30.317 
21:20	35.6	35.6	35.6	76	28.8	1	5	90	0.00	30.317 
21:25	35.6	35.6	35.6	76	28.8	1	5	22	0.00	30.317 
21:30	35.5	35.5	35.5	76	28.7	1	4	112	0.00	30.319 
21:35	35.5	35.5	35.5	76	28.7	1	3	112	0.00	30.319 
21:40	35.5	35.5	35.5	76	28.7	1	3	68	0.00	30.319 
21:45	35.3	35.3	35.3	76	28.5	1	5	68	0.00	30.317 
21:50	35.3	35.3	35.3	76	28.5	1	4	22	0.00	30.317 
21:55	35.2	35.2	35.2	77	28.7	0	3	0	0.00	30.317 
22:00	35.2	35.2	35.2	77	28.7	1	5	0	0.00	30.323 
22:05	35.0	35.0	35.0	77	28.5	0	4	68	0.00	30.323 
22:10	35.0	35.0	35.0	77	28.5	1	4	112	0.00	30.323 
22:15	35.0	35.0	35.0	77	28.5	1	5	112	0.00	30.313 
22:20	34.9	34.9	34.9	78	28.7	2	5	90	0.00	30.313 
22:25	34.9	34.9	34.9	78	28.7	1	3	22	0.00	30.313 
22:30	34.7	34.7	34.7	78	28.6	0	3	22	0.00	30.313 
22:35	34.7	34.7	34.7	79	28.9	1	4	0	0.00	30.313 
22:40	34.7	34.7	34.7	79	28.9	1	7	225	0.00	30.313 
22:45	34.6	34.6	34.6	78	28.5	1	4	112	0.00	30.324 
22:50	34.6	34.6	34.6	78	28.5	2	5	68	0.00	30.324 
22:55	34.6	34.6	34.6	78	28.5	2	7	112	0.00	30.324 
23:00	34.6	34.6	34.6	77	28.1	1	6	112	0.00	30.326 
23:05	34.6	34.6	34.6	77	28.1	3	9	112	0.00	30.326 
23:10	34.6	34.6	34.6	77	28.1	1	5	68	0.00	30.326 
23:15	34.6	34.6	34.6	77	28.1	2	6	68	0.00	30.328 
23:20	34.6	34.6	34.6	77	28.1	2	7	112	0.00	30.328 
23:25	34.4	34.4	34.4	77	27.9	2	6	45	0.00	30.328 
23:30	34.4	34.4	34.4	77	27.9	3	7	90	0.00	30.327 
23:35	34.4	34.4	34.4	76	27.6	2	7	90	0.00	30.327 
23:40	34.4	34.4	34.4	76	27.6	2	7	22	0.00	30.327 
23:45	34.4	34.4	34.4	76	27.6	2	10	45	0.00	30.331 
23:50	34.3	34.3	34.3	76	27.5	1	5	68	0.00	30.331 
23:55	34.3	34.3	34.3	76	27.5	3	11	90	0.00	30.331 

CoCoRaHS
IN-AL-39
A2 Web Hosting
Creative Commons License
GoDaddy
search engine by freefind advanced

loaded 2018-11-21 00:54:16 • last modified 2010-11-18 10:43:29
Privacy PolicyDisclaimer
• wx.awcolley.com is powered by PmWiki v.2002016 •
• all content (unless otherwise noted) © 2018 A W Colley